Belvue, Kansas
Current Conditions -  °F | °C
As of 10:52 AM on Thursday 23 Oct 2014 (Local Time) from KMHK Reporting Station
Overcast Overcast  
Wind Chill: 65°   Ceiling: 3200
Heat Index: 65°   Visibility: 9mi
Dew Point: 61°   Wind: 7mph
Humidity: 87%   Direction: 210°SSW
Pressure: 30.1"   Gusts: NA
Location:  39.22°N, 96.18°W
Report Text: KMHK 231552Z 21006KT 9SM SCT009 OVC032 18/16 A3010 RMK AO2 SLP188 T01830161
Loading
Personal Weather Stations






























Interactive Weather Map
Tropical Storm Tracking
New forecast layout! Learn more

10-Day Weather Forecast

Advertisements
Track Severe Weather on mobile